createdAt,value
2023-01-27T00:12:59.099Z,-13.02
2023-01-27T01:04:12.692Z,-12.11
2023-01-27T01:20:51.904Z,-11.87
2023-01-27T01:23:59.306Z,-11.80
2023-01-27T01:34:15.255Z,-11.52
2023-01-27T01:37:25.658Z,-11.45
2023-01-27T01:43:53.019Z,-11.14
2023-01-27T01:47:05.264Z,-11.00
2023-01-27T01:50:17.784Z,-10.99
2023-01-27T01:53:30.788Z,-10.97
2023-01-27T01:56:56.917Z,-10.83
2023-01-27T02:00:11.510Z,-10.77
2023-01-27T02:06:51.667Z,-10.61
2023-01-27T02:09:59.818Z,-10.48
2023-01-27T02:13:05.281Z,-10.52
2023-01-27T02:19:58.151Z,-10.51
2023-01-27T02:30:04.922Z,-10.44
2023-01-27T03:09:01.883Z,-9.09
2023-01-27T03:19:21.619Z,-9.31
2023-01-27T03:22:34.373Z,-9.33
2023-01-27T03:37:23.396Z,-9.33
2023-01-27T03:40:47.133Z,-9.19
2023-01-27T03:54:50.344Z,-8.73
2023-01-27T04:18:13.644Z,-8.02
2023-01-27T04:47:38.059Z,-7.05
2023-01-27T04:51:31.394Z,-7.12
2023-01-27T05:06:28.661Z,-7.12
2023-01-27T05:20:49.727Z,-6.36
2023-01-27T05:30:55.840Z,-6.29
2023-01-27T06:25:00.776Z,-7.86
2023-01-27T06:28:19.927Z,-7.88
2023-01-27T06:32:00.538Z,-7.81
2023-01-27T07:41:36.842Z,-8.73
2023-01-27T07:44:42.445Z,-8.82
2023-01-27T07:47:59.101Z,-8.86
2023-01-27T07:58:02.428Z,-9.05
2023-01-27T08:04:53.434Z,-9.13
2023-01-27T08:08:01.207Z,-9.17
2023-01-27T08:11:16.143Z,-9.16
2023-01-27T08:14:23.024Z,-9.16
2023-01-27T08:21:06.140Z,-9.26
2023-01-27T08:30:55.095Z,-9.30
2023-01-27T08:34:07.400Z,-9.31
2023-01-27T08:41:11.284Z,-9.34
2023-01-27T08:44:17.811Z,-9.37
2023-01-27T08:47:32.949Z,-9.38
2023-01-27T08:50:40.308Z,-9.45
2023-01-27T08:53:44.084Z,-9.48
2023-01-27T09:03:23.488Z,-9.58
2023-01-27T09:06:35.752Z,-9.62
2023-01-27T09:09:39.837Z,-9.62
2023-01-27T09:26:06.326Z,-9.63
2023-01-27T09:36:16.403Z,-9.61
2023-01-27T09:47:07.486Z,-9.75
2023-01-27T09:54:41.249Z,-9.79
2023-01-27T10:01:59.154Z,-9.93
2023-01-27T10:28:28.768Z,-10.28
2023-01-27T10:32:00.906Z,-10.31
2023-01-27T10:39:02.331Z,-10.46
2023-01-27T10:42:31.899Z,-10.62
2023-01-27T10:49:37.327Z,-10.68
2023-01-27T10:52:52.180Z,-10.71
2023-01-27T10:56:21.862Z,-10.75
2023-01-27T10:59:37.299Z,-10.73
2023-01-27T11:02:57.422Z,-10.72
2023-01-27T11:15:17.768Z,-10.65
2023-01-27T11:38:29.536Z,-10.83
2023-01-27T11:42:12.122Z,-10.90
2023-01-27T11:45:35.619Z,-10.89
2023-01-27T11:49:24.093Z,-10.93
2023-01-27T11:53:39.895Z,-11.00
2023-01-27T12:29:14.639Z,-11.18
2023-01-27T12:47:04.284Z,-11.21
2023-01-27T12:50:35.595Z,-11.24
2023-01-27T12:57:08.009Z,-11.32
2023-01-27T13:04:26.196Z,-11.73
2023-01-27T13:07:45.989Z,-11.66
2023-01-27T13:14:30.111Z,-12.16
2023-01-27T13:17:59.165Z,-12.27
2023-01-27T13:21:24.612Z,-12.35
2023-01-27T13:25:17.668Z,-12.48
2023-01-27T13:28:58.555Z,-12.63
2023-01-27T13:32:15.652Z,-12.76
2023-01-27T13:35:31.752Z,-12.83
2023-01-27T13:39:11.790Z,-12.84
2023-01-27T13:43:00.272Z,-12.74
2023-01-27T13:46:27.040Z,-12.74
2023-01-27T13:49:52.999Z,-12.74
2023-01-27T13:57:09.754Z,-12.70
2023-01-27T14:00:48.407Z,-12.69
2023-01-27T14:04:18.200Z,-12.65
2023-01-27T14:24:04.440Z,-12.84
2023-01-27T14:36:02.760Z,-12.84
2023-01-27T14:40:06.605Z,-12.85
2023-01-27T14:47:26.909Z,-12.76
2023-01-27T14:50:53.948Z,-12.79
2023-01-27T15:01:41.597Z,-12.80
2023-01-27T15:04:54.186Z,-13.00
2023-01-27T15:08:36.243Z,-13.11
2023-01-27T15:11:46.896Z,-13.21
2023-01-27T15:15:04.213Z,-13.23
2023-01-27T15:18:45.858Z,-13.19
2023-01-27T15:22:32.464Z,-13.23
2023-01-27T15:25:46.192Z,-13.22
2023-01-27T15:28:54.456Z,-13.21
2023-01-27T15:32:17.787Z,-13.18
2023-01-27T15:35:30.638Z,-13.14
2023-01-27T15:38:39.071Z,-13.10
2023-01-27T15:42:14.341Z,-13.11
2023-01-27T15:45:37.596Z,-13.07
2023-01-27T15:48:41.483Z,-13.12
2023-01-27T15:51:48.654Z,-13.14
2023-01-27T15:55:02.875Z,-13.10
2023-01-27T15:58:29.388Z,-13.08
2023-01-27T16:01:42.762Z,-13.16
2023-01-27T16:05:06.646Z,-13.19
2023-01-27T16:08:19.371Z,-13.19
2023-01-27T16:11:25.517Z,-13.28
2023-01-27T16:14:41.619Z,-13.16
2023-01-27T16:18:23.786Z,-13.14
2023-01-27T16:25:15.423Z,-12.85
2023-01-27T16:28:22.025Z,-12.74
2023-01-27T16:31:32.021Z,-12.76
2023-01-27T16:34:43.537Z,-12.72
2023-01-27T16:41:44.372Z,-12.55
2023-01-27T16:44:52.594Z,-12.44
2023-01-27T16:48:05.236Z,-12.39
2023-01-27T16:51:28.895Z,-12.39
2023-01-27T16:54:53.739Z,-12.38
2023-01-27T16:57:58.862Z,-12.32
2023-01-27T17:01:04.068Z,-12.24
2023-01-27T17:04:20.028Z,-12.17
2023-01-27T17:07:24.657Z,-12.35
2023-01-27T17:10:34.889Z,-12.53
2023-01-27T17:13:55.083Z,-12.76
2023-01-27T17:17:02.694Z,-12.79
2023-01-27T17:20:09.198Z,-12.85
2023-01-27T17:23:23.059Z,-12.90
2023-01-27T17:26:27.426Z,-12.87
2023-01-27T17:29:40.788Z,-12.87
2023-01-27T17:32:49.161Z,-12.91
2023-01-27T17:35:57.032Z,-12.98
2023-01-27T17:39:02.919Z,-13.01
2023-01-27T17:42:07.603Z,-12.95
2023-01-27T17:48:59.704Z,-12.97
2023-01-27T17:52:05.334Z,-13.02
2023-01-27T17:55:18.283Z,-13.18
2023-01-27T17:58:25.972Z,-13.28
2023-01-27T18:01:31.116Z,-13.33
2023-01-27T18:04:41.513Z,-13.29
2023-01-27T18:07:46.827Z,-13.22
2023-01-27T18:10:50.290Z,-13.21
2023-01-27T18:13:56.228Z,-13.15
2023-01-27T18:17:06.552Z,-13.15
2023-01-27T18:20:39.945Z,-13.10
2023-01-27T18:23:49.101Z,-13.19
2023-01-27T18:26:54.378Z,-13.16
2023-01-27T18:30:04.584Z,-13.26
2023-01-27T18:33:13.953Z,-13.29
2023-01-27T18:36:24.495Z,-13.22
2023-01-27T18:39:43.098Z,-13.35
2023-01-27T18:42:54.385Z,-13.33
2023-01-27T18:45:58.849Z,-13.44
2023-01-27T18:49:02.758Z,-13.46
2023-01-27T18:52:20.489Z,-13.50
2023-01-27T18:55:30.968Z,-13.54
2023-01-27T18:58:44.565Z,-13.61
2023-01-27T19:01:48.288Z,-13.54
2023-01-27T19:04:56.934Z,-13.49
2023-01-27T19:08:02.328Z,-13.50
2023-01-27T19:11:08.400Z,-13.42
2023-01-27T19:14:12.201Z,-13.49
2023-01-27T19:17:28.749Z,-13.40
2023-01-27T19:20:32.567Z,-13.25
2023-01-27T19:23:36.987Z,-13.16
2023-01-27T19:26:45.400Z,-13.23
2023-01-27T19:29:51.283Z,-13.07
2023-01-27T19:32:57.608Z,-13.02
2023-01-27T19:39:42.078Z,-12.94
2023-01-27T19:42:48.908Z,-12.93
2023-01-27T19:45:59.703Z,-12.98
2023-01-27T19:49:04.582Z,-13.05
2023-01-27T19:52:08.313Z,-13.05
2023-01-27T19:55:16.999Z,-13.07
2023-01-27T19:58:27.228Z,-13.04
2023-01-27T20:01:32.854Z,-13.26
2023-01-27T20:04:37.040Z,-13.30
2023-01-27T20:07:42.499Z,-13.42
2023-01-27T20:10:56.532Z,-13.46
2023-01-27T20:14:01.781Z,-13.21
2023-01-27T20:17:05.820Z,-13.01
2023-01-27T20:23:29.625Z,-13.12
2023-01-27T20:26:34.270Z,-13.01
2023-01-27T20:29:39.984Z,-12.97
2023-01-27T20:36:10.282Z,-12.91
2023-01-27T20:45:51.709Z,-13.11
2023-01-27T20:48:55.258Z,-13.25
2023-01-27T20:52:02.004Z,-13.19
2023-01-27T20:55:08.058Z,-13.22
2023-01-27T20:58:12.545Z,-13.23
2023-01-27T21:01:22.655Z,-13.25
2023-01-27T21:04:26.596Z,-13.35
2023-01-27T21:07:31.317Z,-13.23
2023-01-27T21:10:36.089Z,-13.16
2023-01-27T21:13:43.332Z,-13.25
2023-01-27T21:16:47.530Z,-13.28
2023-01-27T21:19:52.740Z,-13.21
2023-01-27T21:22:56.829Z,-13.21
2023-01-27T21:26:12.050Z,-13.21
2023-01-27T21:29:16.171Z,-13.04
2023-01-27T21:32:20.727Z,-13.07
2023-01-27T21:35:24.904Z,-13.05
2023-01-27T21:38:48.475Z,-12.97
2023-01-27T21:41:56.584Z,-12.98
2023-01-27T21:45:17.130Z,-13.00
2023-01-27T21:51:40.773Z,-13.01
2023-01-27T22:01:30.107Z,-12.95
2023-01-27T22:11:18.471Z,-13.07
2023-01-27T22:14:34.978Z,-13.12
2023-01-27T22:17:39.052Z,-13.14
2023-01-27T22:20:43.729Z,-12.98
2023-01-27T22:23:56.110Z,-12.91
2023-01-27T22:27:00.185Z,-12.80
2023-01-27T22:30:05.447Z,-12.80
2023-01-27T22:33:10.241Z,-12.83
2023-01-27T22:36:14.574Z,-12.74
2023-01-27T22:39:19.330Z,-12.63
2023-01-27T22:42:25.367Z,-12.67
2023-01-27T22:45:29.341Z,-12.57
2023-01-27T22:48:33.803Z,-12.46
2023-01-27T22:51:42.937Z,-12.29
2023-01-27T22:54:47.037Z,-12.11
2023-01-27T22:57:54.860Z,-11.98
2023-01-27T23:00:59.843Z,-11.83
2023-01-27T23:07:21.780Z,-11.51
2023-01-27T23:10:27.294Z,-11.39
2023-01-27T23:13:34.317Z,-11.30
2023-01-27T23:16:42.106Z,-11.23
2023-01-27T23:19:47.359Z,-11.20
2023-01-27T23:22:54.359Z,-11.01
2023-01-27T23:25:58.527Z,-10.90
2023-01-27T23:29:19.369Z,-10.79
2023-01-27T23:32:28.352Z,-10.59
2023-01-27T23:35:31.949Z,-10.55
2023-01-27T23:38:38.964Z,-10.41
2023-01-27T23:42:05.546Z,-10.28
2023-01-27T23:45:10.797Z,-10.12
2023-01-27T23:48:15.692Z,-9.97
2023-01-27T23:51:21.224Z,-9.80
2023-01-27T23:54:28.018Z,-9.78
2023-01-27T23:57:34.161Z,-9.73
